Detall de PIREP

Printer-friendly versionPDF version

[2012/08/09 20:43:00]
Flight IATA:CT0001
Pilot Number:044
Company ICAO:CAT
Aircraft Type:BE20/A
PAX:6
Departing Airport: LEVC
Destination Airport: LEAL
Alternate Airport:LEIB
Online: VATSIM
Route:ASTRO
Flight Level:F100
No Slew and time accel
No pause
Crash detect
Detect pilot in Cockpit between each 30 and 45 minutes
20:43 Zero fuel Weight: 8738 Lbs, Fuel Weight: 3624 Lbs
20:43 VATSIM:LEVC 092030Z 20005KT 9999 FEW025 27/22 Q1020 NOSIG
20:43 VATSIM:LEAL 092030Z VRB02KT CAVOK 27/25 Q1019 NOSIG
20:43 VOICE CATALONIAN
20:44 Parking Brakes off
20:52 Take-off
20:52 Take off Weight: 12327 Lbs
20:52 Wind: 203º @ 005 Knots Heading: 116º
20:52 POS N39º 29´ 23´´ W000º 29´ 00´´
20:52 Gear Up: 132 Knots
20:52 Flaps:1 at 132 Knots
20:53 Flaps:0 at 134 Knots
21:01 TOC
21:01 Fuel Weight: 3460 Lb
21:07 Wind:192º@011 Knots Heading: 229º Ground Speed: 200 Knots Altitude 10216 ft
21:11 TOD
21:11 Fuel Weight: 3369 Lb
21:22 Wind:055º@005 Knots Heading: 191º Ground Speed: 197 Knots Altitude 7083 ft
21:29 Flaps:1 at 133 Knots
21:31 Gear Down: 140 Knots
21:31 Flaps:2 at 134 Knots
21:34 TouchDown:Rate -66 ft/min Speed: 106 Knots
21:34 VATSIM:LEAL 092100Z VRB04KT CAVOK 27/25 Q1020 NOSIG
21:34 Land
21:34 Wind:049º@003 Knots
21:34 Heading: 103º
21:34 Flight Duration: 00:42
21:34 Landing Weight: 11982 Lbs
21:34 POS N38º 16´ 53´´ W000º 33´ 09´´
21:39 Parking brakes on
21:39 Block to Block Duration: 00:55
21:39 Final Fuel: 3229 Lbls
21:39 Spent Fuel: 394 Lbls
21:39 Flight Length: 128 NM
21:39 TOD Land Length: 64 NM

Exportar CSV

Powered by Drupal - Modified by Danger4k